sensor_id;sensor_type;location;lat;lon;timestamp;P1;durP1;ratioP1;P2;durP2;ratioP2
8819;SDS011;4446;50.876;4.736;2023-05-06T00:01:29;1.30;;;1.20;;
8819;SDS011;4446;50.876;4.736;2023-05-06T00:03:57;2.05;;;1.40;;
8819;SDS011;4446;50.876;4.736;2023-05-06T00:06:26;2.63;;;1.38;;
8819;SDS011;4446;50.876;4.736;2023-05-06T00:08:53;2.55;;;1.38;;
8819;SDS011;4446;50.876;4.736;2023-05-06T00:11:20;2.05;;;1.50;;
8819;SDS011;4446;50.876;4.736;2023-05-06T00:13:47;3.25;;;1.30;;
8819;SDS011;4446;50.876;4.736;2023-05-06T00:16:14;1.83;;;1.45;;
8819;SDS011;4446;50.876;4.736;2023-05-06T00:18:41;1.65;;;1.35;;
8819;SDS011;4446;50.876;4.736;2023-05-06T00:21:08;1.50;;;1.40;;
8819;SDS011;4446;50.876;4.736;2023-05-06T00:23:36;4.22;;;1.58;;
8819;SDS011;4446;50.876;4.736;2023-05-06T00:26:03;2.65;;;1.63;;
8819;SDS011;4446;50.876;4.736;2023-05-06T00:28:31;3.75;;;1.60;;
8819;SDS011;4446;50.876;4.736;2023-05-06T00:30:58;2.10;;;1.48;;
8819;SDS011;4446;50.876;4.736;2023-05-06T00:33:25;2.75;;;1.52;;
8819;SDS011;4446;50.876;4.736;2023-05-06T00:35:52;2.55;;;1.90;;
8819;SDS011;4446;50.876;4.736;2023-05-06T00:38:19;3.03;;;1.50;;
8819;SDS011;4446;50.876;4.736;2023-05-06T00:40:48;3.45;;;1.70;;
8819;SDS011;4446;50.876;4.736;2023-05-06T00:43:15;4.65;;;2.05;;
8819;SDS011;4446;50.876;4.736;2023-05-06T00:45:42;2.58;;;1.60;;
8819;SDS011;4446;50.876;4.736;2023-05-06T00:48:09;2.83;;;1.65;;
8819;SDS011;4446;50.876;4.736;2023-05-06T00:50:36;2.33;;;1.55;;
8819;SDS011;4446;50.876;4.736;2023-05-06T00:53:05;4.03;;;1.90;;
8819;SDS011;4446;50.876;4.736;2023-05-06T00:55:34;4.28;;;1.90;;
8819;SDS011;4446;50.876;4.736;2023-05-06T00:58:04;3.72;;;1.70;;
8819;SDS011;4446;50.876;4.736;2023-05-06T01:00:31;2.80;;;1.52;;
8819;SDS011;4446;50.876;4.736;2023-05-06T01:02:58;4.22;;;2.50;;
8819;SDS011;4446;50.876;4.736;2023-05-06T01:05:28;3.25;;;1.95;;
8819;SDS011;4446;50.876;4.736;2023-05-06T01:08:03;3.67;;;1.85;;
8819;SDS011;4446;50.876;4.736;2023-05-06T01:10:43;3.05;;;1.85;;
8819;SDS011;4446;50.876;4.736;2023-05-06T01:13:19;3.58;;;1.90;;
8819;SDS011;4446;50.876;4.736;2023-05-06T01:15:51;2.58;;;1.90;;
8819;SDS011;4446;50.876;4.736;2023-05-06T01:18:21;3.53;;;1.90;;
8819;SDS011;4446;50.876;4.736;2023-05-06T01:20:51;2.47;;;1.80;;
8819;SDS011;4446;50.876;4.736;2023-05-06T01:23:21;3.95;;;1.73;;
8819;SDS011;4446;50.876;4.736;2023-05-06T01:25:48;5.25;;;2.13;;
8819;SDS011;4446;50.876;4.736;2023-05-06T01:28:15;2.67;;;1.75;;
8819;SDS011;4446;50.876;4.736;2023-05-06T01:30:47;4.68;;;1.95;;
8819;SDS011;4446;50.876;4.736;2023-05-06T01:33:20;3.40;;;1.80;;
8819;SDS011;4446;50.876;4.736;2023-05-06T01:35:54;3.05;;;1.83;;
8819;SDS011;4446;50.876;4.736;2023-05-06T01:38:33;2.20;;;1.77;;
8819;SDS011;4446;50.876;4.736;2023-05-06T01:41:04;2.97;;;2.03;;
8819;SDS011;4446;50.876;4.736;2023-05-06T01:43:35;3.03;;;1.90;;
8819;SDS011;4446;50.876;4.736;2023-05-06T01:46:05;3.33;;;1.60;;
8819;SDS011;4446;50.876;4.736;2023-05-06T01:48:35;4.68;;;3.00;;
8819;SDS011;4446;50.876;4.736;2023-05-06T01:51:04;2.28;;;1.58;;
8819;SDS011;4446;50.876;4.736;2023-05-06T01:53:33;3.08;;;1.80;;
8819;SDS011;4446;50.876;4.736;2023-05-06T01:56:00;3.50;;;1.80;;
8819;SDS011;4446;50.876;4.736;2023-05-06T01:58:27;2.88;;;1.63;;
8819;SDS011;4446;50.876;4.736;2023-05-06T02:00:54;2.58;;;1.63;;
8819;SDS011;4446;50.876;4.736;2023-05-06T02:03:21;3.70;;;1.80;;
8819;SDS011;4446;50.876;4.736;2023-05-06T02:05:48;2.20;;;1.63;;
8819;SDS011;4446;50.876;4.736;2023-05-06T02:08:15;4.13;;;2.05;;
8819;SDS011;4446;50.876;4.736;2023-05-06T02:10:43;4.88;;;1.98;;
8819;SDS011;4446;50.876;4.736;2023-05-06T02:13:10;4.32;;;2.45;;
8819;SDS011;4446;50.876;4.736;2023-05-06T02:15:37;2.90;;;2.03;;
8819;SDS011;4446;50.876;4.736;2023-05-06T02:18:04;4.28;;;1.88;;
8819;SDS011;4446;50.876;4.736;2023-05-06T02:20:32;4.60;;;1.85;;
8819;SDS011;4446;50.876;4.736;2023-05-06T02:22:58;2.97;;;1.75;;
8819;SDS011;4446;50.876;4.736;2023-05-06T02:25:26;2.53;;;1.90;;
8819;SDS011;4446;50.876;4.736;2023-05-06T02:27:54;4.15;;;1.90;;
8819;SDS011;4446;50.876;4.736;2023-05-06T02:30:21;2.60;;;1.60;;
8819;SDS011;4446;50.876;4.736;2023-05-06T02:32:48;3.83;;;1.83;;
8819;SDS011;4446;50.876;4.736;2023-05-06T02:35:15;2.45;;;1.63;;
8819;SDS011;4446;50.876;4.736;2023-05-06T02:37:42;2.45;;;1.80;;
8819;SDS011;4446;50.876;4.736;2023-05-06T02:40:09;2.50;;;1.60;;
8819;SDS011;4446;50.876;4.736;2023-05-06T02:42:37;2.58;;;1.67;;
8819;SDS011;4446;50.876;4.736;2023-05-06T02:45:06;2.08;;;1.70;;
8819;SDS011;4446;50.876;4.736;2023-05-06T02:47:33;2.92;;;1.90;;
8819;SDS011;4446;50.876;4.736;2023-05-06T02:50:00;4.13;;;1.88;;
8819;SDS011;4446;50.876;4.736;2023-05-06T02:52:27;3.75;;;2.38;;
8819;SDS011;4446;50.876;4.736;2023-05-06T02:54:54;2.92;;;2.63;;
8819;SDS011;4446;50.876;4.736;2023-05-06T02:57:21;3.33;;;1.77;;
8819;SDS011;4446;50.876;4.736;2023-05-06T02:59:48;2.72;;;1.67;;
8819;SDS011;4446;50.876;4.736;2023-05-06T03:02:17;2.85;;;1.85;;
8819;SDS011;4446;50.876;4.736;2023-05-06T03:04:44;3.55;;;1.92;;
8819;SDS011;4446;50.876;4.736;2023-05-06T03:07:11;2.95;;;1.85;;
8819;SDS011;4446;50.876;4.736;2023-05-06T03:09:38;3.83;;;2.10;;
8819;SDS011;4446;50.876;4.736;2023-05-06T03:12:05;2.78;;;1.75;;
8819;SDS011;4446;50.876;4.736;2023-05-06T03:14:32;4.75;;;2.50;;
8819;SDS011;4446;50.876;4.736;2023-05-06T03:16:59;3.63;;;2.10;;
8819;SDS011;4446;50.876;4.736;2023-05-06T03:19:27;5.13;;;2.38;;
8819;SDS011;4446;50.876;4.736;2023-05-06T03:21:54;4.43;;;2.28;;
8819;SDS011;4446;50.876;4.736;2023-05-06T03:24:21;5.63;;;2.40;;
8819;SDS011;4446;50.876;4.736;2023-05-06T03:26:48;3.83;;;2.50;;
8819;SDS011;4446;50.876;4.736;2023-05-06T03:29:15;5.32;;;2.72;;
8819;SDS011;4446;50.876;4.736;2023-05-06T03:31:42;5.70;;;2.45;;
8819;SDS011;4446;50.876;4.736;2023-05-06T03:34:09;4.05;;;2.30;;
8819;SDS011;4446;50.876;4.736;2023-05-06T03:36:38;3.40;;;2.65;;
8819;SDS011;4446;50.876;4.736;2023-05-06T03:39:04;5.28;;;2.80;;
8819;SDS011;4446;50.876;4.736;2023-05-06T03:41:32;2.45;;;2.13;;
8819;SDS011;4446;50.876;4.736;2023-05-06T03:43:59;4.50;;;2.33;;
8819;SDS011;4446;50.876;4.736;2023-05-06T03:46:26;5.35;;;2.50;;
8819;SDS011;4446;50.876;4.736;2023-05-06T03:48:53;3.33;;;2.40;;
8819;SDS011;4446;50.876;4.736;2023-05-06T03:51:20;3.88;;;2.58;;
8819;SDS011;4446;50.876;4.736;2023-05-06T03:53:48;4.95;;;2.20;;
8819;SDS011;4446;50.876;4.736;2023-05-06T03:56:15;4.38;;;2.53;;
8819;SDS011;4446;50.876;4.736;2023-05-06T03:58:43;5.80;;;2.55;;
8819;SDS011;4446;50.876;4.736;2023-05-06T04:01:10;4.57;;;2.42;;
8819;SDS011;4446;50.876;4.736;2023-05-06T04:03:37;3.47;;;2.03;;
8819;SDS011;4446;50.876;4.736;2023-05-06T04:06:04;4.50;;;2.35;;
8819;SDS011;4446;50.876;4.736;2023-05-06T04:08:31;4.28;;;2.53;;
8819;SDS011;4446;50.876;4.736;2023-05-06T04:11:03;4.22;;;2.20;;
8819;SDS011;4446;50.876;4.736;2023-05-06T04:13:31;4.10;;;2.33;;
8819;SDS011;4446;50.876;4.736;2023-05-06T04:15:58;3.35;;;2.03;;
8819;SDS011;4446;50.876;4.736;2023-05-06T04:18:25;4.65;;;2.47;;
8819;SDS011;4446;50.876;4.736;2023-05-06T04:20:52;4.00;;;2.45;;
8819;SDS011;4446;50.876;4.736;2023-05-06T04:23:19;4.90;;;2.58;;
8819;SDS011;4446;50.876;4.736;2023-05-06T04:25:46;5.45;;;2.22;;
8819;SDS011;4446;50.876;4.736;2023-05-06T04:28:15;3.20;;;2.20;;
8819;SDS011;4446;50.876;4.736;2023-05-06T04:30:42;3.92;;;2.42;;
8819;SDS011;4446;50.876;4.736;2023-05-06T04:33:09;4.85;;;2.50;;
8819;SDS011;4446;50.876;4.736;2023-05-06T04:35:37;3.08;;;2.22;;
8819;SDS011;4446;50.876;4.736;2023-05-06T04:38:04;4.88;;;2.50;;
8819;SDS011;4446;50.876;4.736;2023-05-06T04:40:33;2.95;;;2.35;;
8819;SDS011;4446;50.876;4.736;2023-05-06T04:43:00;3.25;;;2.45;;
8819;SDS011;4446;50.876;4.736;2023-05-06T04:45:30;4.28;;;2.55;;
8819;SDS011;4446;50.876;4.736;2023-05-06T04:47:58;4.68;;;2.45;;
8819;SDS011;4446;50.876;4.736;2023-05-06T04:50:25;4.15;;;2.40;;
8819;SDS011;4446;50.876;4.736;2023-05-06T04:52:52;3.33;;;2.60;;
8819;SDS011;4446;50.876;4.736;2023-05-06T04:55:19;3.53;;;2.38;;
8819;SDS011;4446;50.876;4.736;2023-05-06T04:57:46;3.67;;;2.50;;
8819;SDS011;4446;50.876;4.736;2023-05-06T05:00:13;5.28;;;2.58;;
8819;SDS011;4446;50.876;4.736;2023-05-06T05:02:43;4.13;;;2.38;;
8819;SDS011;4446;50.876;4.736;2023-05-06T05:05:10;3.47;;;2.00;;
8819;SDS011;4446;50.876;4.736;2023-05-06T05:07:37;4.05;;;2.25;;
8819;SDS011;4446;50.876;4.736;2023-05-06T05:10:05;3.70;;;2.35;;
8819;SDS011;4446;50.876;4.736;2023-05-06T05:12:33;4.43;;;2.67;;
8819;SDS011;4446;50.876;4.736;2023-05-06T05:15:00;4.68;;;2.85;;
8819;SDS011;4446;50.876;4.736;2023-05-06T05:17:27;5.15;;;2.70;;
8819;SDS011;4446;50.876;4.736;2023-05-06T05:19:56;6.95;;;3.00;;
8819;SDS011;4446;50.876;4.736;2023-05-06T05:22:23;5.82;;;3.00;;
8819;SDS011;4446;50.876;4.736;2023-05-06T05:24:50;4.15;;;2.63;;
8819;SDS011;4446;50.876;4.736;2023-05-06T05:27:17;4.47;;;3.28;;
8819;SDS011;4446;50.876;4.736;2023-05-06T05:29:44;3.90;;;2.60;;
8819;SDS011;4446;50.876;4.736;2023-05-06T05:32:11;4.60;;;2.70;;
8819;SDS011;4446;50.876;4.736;2023-05-06T05:34:38;4.90;;;3.17;;
8819;SDS011;4446;50.876;4.736;2023-05-06T05:37:06;5.63;;;3.42;;
8819;SDS011;4446;50.876;4.736;2023-05-06T05:39:34;5.45;;;2.95;;
8819;SDS011;4446;50.876;4.736;2023-05-06T05:42:01;5.45;;;3.63;;
8819;SDS011;4446;50.876;4.736;2023-05-06T05:44:28;7.70;;;3.75;;
8819;SDS011;4446;50.876;4.736;2023-05-06T05:46:55;3.63;;;3.10;;
8819;SDS011;4446;50.876;4.736;2023-05-06T05:49:22;3.85;;;2.97;;
8819;SDS011;4446;50.876;4.736;2023-05-06T05:51:49;6.35;;;3.30;;
8819;SDS011;4446;50.876;4.736;2023-05-06T05:54:17;5.97;;;3.50;;
8819;SDS011;4446;50.876;4.736;2023-05-06T05:56:45;6.97;;;3.40;;
8819;SDS011;4446;50.876;4.736;2023-05-06T05:59:12;7.00;;;3.38;;
8819;SDS011;4446;50.876;4.736;2023-05-06T06:01:38;5.60;;;3.47;;
8819;SDS011;4446;50.876;4.736;2023-05-06T06:04:05;6.47;;;2.95;;
8819;SDS011;4446;50.876;4.736;2023-05-06T06:06:32;5.90;;;3.13;;
8819;SDS011;4446;50.876;4.736;2023-05-06T06:08:59;4.57;;;2.92;;
8819;SDS011;4446;50.876;4.736;2023-05-06T06:11:28;7.05;;;3.15;;
8819;SDS011;4446;50.876;4.736;2023-05-06T06:13:55;6.30;;;2.97;;
8819;SDS011;4446;50.876;4.736;2023-05-06T06:16:22;7.28;;;3.20;;
8819;SDS011;4446;50.876;4.736;2023-05-06T06:18:49;4.88;;;2.95;;
8819;SDS011;4446;50.876;4.736;2023-05-06T06:21:16;6.70;;;3.28;;
8819;SDS011;4446;50.876;4.736;2023-05-06T06:23:43;5.57;;;3.35;;
8819;SDS011;4446;50.876;4.736;2023-05-06T06:26:10;6.82;;;4.00;;
8819;SDS011;4446;50.876;4.736;2023-05-06T06:28:38;7.35;;;3.35;;
8819;SDS011;4446;50.876;4.736;2023-05-06T06:31:06;4.13;;;3.00;;
8819;SDS011;4446;50.876;4.736;2023-05-06T06:33:33;6.47;;;3.20;;
8819;SDS011;4446;50.876;4.736;2023-05-06T06:35:59;7.00;;;3.25;;
8819;SDS011;4446;50.876;4.736;2023-05-06T06:38:26;4.18;;;2.80;;
8819;SDS011;4446;50.876;4.736;2023-05-06T06:40:53;4.30;;;3.05;;
8819;SDS011;4446;50.876;4.736;2023-05-06T06:43:20;4.40;;;3.05;;
8819;SDS011;4446;50.876;4.736;2023-05-06T06:45:50;3.95;;;2.70;;
8819;SDS011;4446;50.876;4.736;2023-05-06T06:48:17;7.70;;;3.42;;
8819;SDS011;4446;50.876;4.736;2023-05-06T06:50:44;4.05;;;3.00;;
8819;SDS011;4446;50.876;4.736;2023-05-06T06:53:11;4.78;;;3.08;;
8819;SDS011;4446;50.876;4.736;2023-05-06T06:55:41;3.97;;;3.05;;
8819;SDS011;4446;50.876;4.736;2023-05-06T06:58:08;2.97;;;2.60;;
8819;SDS011;4446;50.876;4.736;2023-05-06T07:00:35;3.38;;;2.60;;
8819;SDS011;4446;50.876;4.736;2023-05-06T07:03:04;4.10;;;2.60;;
8819;SDS011;4446;50.876;4.736;2023-05-06T07:05:31;4.38;;;2.17;;
8819;SDS011;4446;50.876;4.736;2023-05-06T07:07:57;3.30;;;2.38;;
8819;SDS011;4446;50.876;4.736;2023-05-06T07:10:24;2.97;;;2.50;;
8819;SDS011;4446;50.876;4.736;2023-05-06T07:12:51;2.42;;;2.03;;
8819;SDS011;4446;50.876;4.736;2023-05-06T07:15:19;3.08;;;2.33;;
8819;SDS011;4446;50.876;4.736;2023-05-06T07:17:47;4.70;;;2.40;;
8819;SDS011;4446;50.876;4.736;2023-05-06T07:20:18;3.97;;;1.73;;
8819;SDS011;4446;50.876;4.736;2023-05-06T07:22:45;2.58;;;1.90;;
8819;SDS011;4446;50.876;4.736;2023-05-06T07:25:12;2.78;;;1.85;;
8819;SDS011;4446;50.876;4.736;2023-05-06T07:27:39;2.80;;;2.10;;
8819;SDS011;4446;50.876;4.736;2023-05-06T07:30:07;3.58;;;1.85;;
8819;SDS011;4446;50.876;4.736;2023-05-06T07:32:34;2.30;;;2.00;;
8819;SDS011;4446;50.876;4.736;2023-05-06T07:35:01;2.50;;;2.03;;
8819;SDS011;4446;50.876;4.736;2023-05-06T07:37:31;3.10;;;1.98;;
8819;SDS011;4446;50.876;4.736;2023-05-06T07:39:58;2.28;;;1.80;;
8819;SDS011;4446;50.876;4.736;2023-05-06T07:42:25;3.33;;;1.90;;
8819;SDS011;4446;50.876;4.736;2023-05-06T07:44:52;3.13;;;1.85;;
8819;SDS011;4446;50.876;4.736;2023-05-06T07:47:24;2.67;;;1.70;;
8819;SDS011;4446;50.876;4.736;2023-05-06T07:49:52;3.47;;;1.70;;
8819;SDS011;4446;50.876;4.736;2023-05-06T07:52:20;2.35;;;1.73;;
8819;SDS011;4446;50.876;4.736;2023-05-06T07:54:48;1.85;;;1.65;;
8819;SDS011;4446;50.876;4.736;2023-05-06T07:57:15;2.40;;;1.77;;
8819;SDS011;4446;50.876;4.736;2023-05-06T07:59:45;3.30;;;2.40;;
8819;SDS011;4446;50.876;4.736;2023-05-06T08:02:12;3.03;;;2.63;;
8819;SDS011;4446;50.876;4.736;2023-05-06T08:04:40;2.05;;;1.80;;
8819;SDS011;4446;50.876;4.736;2023-05-06T08:07:08;3.15;;;1.88;;
8819;SDS011;4446;50.876;4.736;2023-05-06T08:09:35;4.13;;;2.00;;
8819;SDS011;4446;50.876;4.736;2023-05-06T08:12:04;3.00;;;1.67;;
8819;SDS011;4446;50.876;4.736;2023-05-06T08:14:31;4.65;;;2.17;;
8819;SDS011;4446;50.876;4.736;2023-05-06T08:16:58;4.00;;;1.85;;
8819;SDS011;4446;50.876;4.736;2023-05-06T08:19:26;2.90;;;1.80;;
8819;SDS011;4446;50.876;4.736;2023-05-06T08:21:53;2.67;;;2.00;;
8819;SDS011;4446;50.876;4.736;2023-05-06T08:24:20;2.65;;;2.13;;
8819;SDS011;4446;50.876;4.736;2023-05-06T08:26:50;3.03;;;1.98;;
8819;SDS011;4446;50.876;4.736;2023-05-06T08:29:19;2.72;;;2.05;;
8819;SDS011;4446;50.876;4.736;2023-05-06T08:31:46;5.03;;;2.45;;
8819;SDS011;4446;50.876;4.736;2023-05-06T08:34:13;3.15;;;2.20;;
8819;SDS011;4446;50.876;4.736;2023-05-06T08:36:42;2.28;;;2.03;;
8819;SDS011;4446;50.876;4.736;2023-05-06T08:39:09;3.35;;;2.10;;
8819;SDS011;4446;50.876;4.736;2023-05-06T08:41:38;2.80;;;2.08;;
8819;SDS011;4446;50.876;4.736;2023-05-06T08:44:11;3.20;;;2.47;;
8819;SDS011;4446;50.876;4.736;2023-05-06T08:46:42;3.75;;;2.28;;
8819;SDS011;4446;50.876;4.736;2023-05-06T08:49:09;4.65;;;2.20;;
8819;SDS011;4446;50.876;4.736;2023-05-06T08:51:36;2.45;;;2.13;;
8819;SDS011;4446;50.876;4.736;2023-05-06T08:54:04;2.97;;;2.22;;
8819;SDS011;4446;50.876;4.736;2023-05-06T08:56:32;2.20;;;1.95;;
8819;SDS011;4446;50.876;4.736;2023-05-06T08:59:01;2.38;;;2.00;;
8819;SDS011;4446;50.876;4.736;2023-05-06T09:01:28;2.58;;;1.88;;
8819;SDS011;4446;50.876;4.736;2023-05-06T09:03:56;3.22;;;1.60;;
8819;SDS011;4446;50.876;4.736;2023-05-06T09:06:24;2.97;;;1.77;;
8819;SDS011;4446;50.876;4.736;2023-05-06T09:08:51;2.55;;;1.95;;
8819;SDS011;4446;50.876;4.736;2023-05-06T09:11:22;3.25;;;1.92;;
8819;SDS011;4446;50.876;4.736;2023-05-06T09:13:51;2.15;;;1.95;;
8819;SDS011;4446;50.876;4.736;2023-05-06T09:16:33;2.45;;;1.60;;
8819;SDS011;4446;50.876;4.736;2023-05-06T09:19:01;2.22;;;1.73;;
8819;SDS011;4446;50.876;4.736;2023-05-06T09:21:31;4.10;;;1.70;;
8819;SDS011;4446;50.876;4.736;2023-05-06T09:23:59;2.33;;;1.50;;
8819;SDS011;4446;50.876;4.736;2023-05-06T09:26:27;3.05;;;1.60;;
8819;SDS011;4446;50.876;4.736;2023-05-06T09:28:54;1.73;;;1.60;;
8819;SDS011;4446;50.876;4.736;2023-05-06T09:31:22;4.85;;;1.77;;
8819;SDS011;4446;50.876;4.736;2023-05-06T09:33:49;2.47;;;1.40;;
8819;SDS011;4446;50.876;4.736;2023-05-06T09:36:18;2.03;;;1.60;;
8819;SDS011;4446;50.876;4.736;2023-05-06T09:38:45;3.05;;;1.83;;
8819;SDS011;4446;50.876;4.736;2023-05-06T09:41:13;2.88;;;1.80;;
8819;SDS011;4446;50.876;4.736;2023-05-06T09:43:41;2.08;;;1.70;;
8819;SDS011;4446;50.876;4.736;2023-05-06T09:46:09;1.63;;;1.50;;
8819;SDS011;4446;50.876;4.736;2023-05-06T09:48:37;2.20;;;1.80;;
8819;SDS011;4446;50.876;4.736;2023-05-06T09:51:04;3.05;;;2.10;;
8819;SDS011;4446;50.876;4.736;2023-05-06T09:53:34;2.15;;;1.80;;
8819;SDS011;4446;50.876;4.736;2023-05-06T09:56:02;2.20;;;1.67;;
8819;SDS011;4446;50.876;4.736;2023-05-06T09:58:31;3.90;;;1.70;;
8819;SDS011;4446;50.876;4.736;2023-05-06T10:00:59;3.97;;;1.88;;
8819;SDS011;4446;50.876;4.736;2023-05-06T10:03:26;2.65;;;1.42;;
8819;SDS011;4446;50.876;4.736;2023-05-06T10:05:53;3.92;;;1.85;;
8819;SDS011;4446;50.876;4.736;2023-05-06T10:08:23;2.50;;;1.58;;
8819;SDS011;4446;50.876;4.736;2023-05-06T10:10:52;1.75;;;1.48;;
8819;SDS011;4446;50.876;4.736;2023-05-06T10:13:20;3.15;;;1.60;;
8819;SDS011;4446;50.876;4.736;2023-05-06T10:15:49;1.50;;;1.40;;
8819;SDS011;4446;50.876;4.736;2023-05-06T10:18:17;1.50;;;1.40;;
8819;SDS011;4446;50.876;4.736;2023-05-06T10:20:45;2.22;;;1.30;;
8819;SDS011;4446;50.876;4.736;2023-05-06T10:23:15;1.55;;;1.20;;
8819;SDS011;4446;50.876;4.736;2023-05-06T10:25:50;3.42;;;1.85;;
8819;SDS011;4446;50.876;4.736;2023-05-06T10:28:21;3.13;;;1.30;;
8819;SDS011;4446;50.876;4.736;2023-05-06T10:30:49;2.22;;;1.42;;
8819;SDS011;4446;50.876;4.736;2023-05-06T10:33:17;2.55;;;1.40;;
8819;SDS011;4446;50.876;4.736;2023-05-06T10:35:47;3.63;;;1.60;;
8819;SDS011;4446;50.876;4.736;2023-05-06T10:38:22;2.90;;;1.33;;
8819;SDS011;4446;50.876;4.736;2023-05-06T10:40:54;2.25;;;1.35;;
8819;SDS011;4446;50.876;4.736;2023-05-06T10:43:22;4.75;;;1.85;;
8819;SDS011;4446;50.876;4.736;2023-05-06T10:46:00;3.08;;;1.55;;
8819;SDS011;4446;50.876;4.736;2023-05-06T10:48:33;2.33;;;1.58;;
8819;SDS011;4446;50.876;4.736;2023-05-06T10:51:24;2.00;;;1.30;;
8819;SDS011;4446;50.876;4.736;2023-05-06T10:54:00;2.17;;;1.35;;
8819;SDS011;4446;50.876;4.736;2023-05-06T10:56:31;2.65;;;1.58;;
8819;SDS011;4446;50.876;4.736;2023-05-06T10:59:04;1.50;;;1.40;;
8819;SDS011;4446;50.876;4.736;2023-05-06T11:01:33;2.10;;;1.27;;
8819;SDS011;4446;50.876;4.736;2023-05-06T11:04:03;1.50;;;1.25;;
8819;SDS011;4446;50.876;4.736;2023-05-06T11:06:36;2.85;;;1.48;;
8819;SDS011;4446;50.876;4.736;2023-05-06T11:09:06;1.55;;;1.25;;
8819;SDS011;4446;50.876;4.736;2023-05-06T11:11:49;2.88;;;1.50;;
8819;SDS011;4446;50.876;4.736;2023-05-06T11:14:29;2.63;;;1.35;;
8819;SDS011;4446;50.876;4.736;2023-05-06T11:16:58;2.50;;;1.23;;
8819;SDS011;4446;50.876;4.736;2023-05-06T11:19:26;1.60;;;1.40;;
8819;SDS011;4446;50.876;4.736;2023-05-06T11:21:55;1.50;;;1.40;;
8819;SDS011;4446;50.876;4.736;2023-05-06T11:24:24;1.75;;;1.50;;
8819;SDS011;4446;50.876;4.736;2023-05-06T11:26:53;2.70;;;1.60;;
8819;SDS011;4446;50.876;4.736;2023-05-06T11:29:21;2.40;;;1.50;;
8819;SDS011;4446;50.876;4.736;2023-05-06T11:31:49;1.90;;;1.50;;
8819;SDS011;4446;50.876;4.736;2023-05-06T11:34:22;2.28;;;1.55;;
8819;SDS011;4446;50.876;4.736;2023-05-06T11:36:52;2.83;;;1.50;;
8819;SDS011;4446;50.876;4.736;2023-05-06T11:39:27;2.53;;;1.40;;
8819;SDS011;4446;50.876;4.736;2023-05-06T11:42:00;4.38;;;1.50;;
8819;SDS011;4446;50.876;4.736;2023-05-06T11:44:29;1.85;;;1.40;;
8819;SDS011;4446;50.876;4.736;2023-05-06T11:46:57;3.50;;;1.30;;
8819;SDS011;4446;50.876;4.736;2023-05-06T11:49:25;2.75;;;1.60;;
8819;SDS011;4446;50.876;4.736;2023-05-06T11:51:53;1.40;;;1.13;;
8819;SDS011;4446;50.876;4.736;2023-05-06T11:54:23;2.03;;;1.20;;
8819;SDS011;4446;50.876;4.736;2023-05-06T11:56:52;6.20;;;2.00;;
8819;SDS011;4446;50.876;4.736;2023-05-06T11:59:27;1.90;;;1.40;;
8819;SDS011;4446;50.876;4.736;2023-05-06T12:01:56;1.50;;;1.40;;
8819;SDS011;4446;50.876;4.736;2023-05-06T12:04:24;2.08;;;1.60;;
8819;SDS011;4446;50.876;4.736;2023-05-06T12:06:51;3.35;;;1.60;;
8819;SDS011;4446;50.876;4.736;2023-05-06T12:09:19;3.38;;;1.52;;
8819;SDS011;4446;50.876;4.736;2023-05-06T12:11:47;2.22;;;1.50;;
8819;SDS011;4446;50.876;4.736;2023-05-06T12:14:15;1.63;;;1.48;;
8819;SDS011;4446;50.876;4.736;2023-05-06T12:16:45;2.17;;;1.50;;
8819;SDS011;4446;50.876;4.736;2023-05-06T12:19:14;2.00;;;1.30;;
8819;SDS011;4446;50.876;4.736;2023-05-06T12:21:42;2.42;;;1.48;;
8819;SDS011;4446;50.876;4.736;2023-05-06T12:24:10;2.22;;;1.65;;
8819;SDS011;4446;50.876;4.736;2023-05-06T12:26:41;2.28;;;1.50;;
8819;SDS011;4446;50.876;4.736;2023-05-06T12:29:10;2.63;;;1.55;;
8819;SDS011;4446;50.876;4.736;2023-05-06T12:31:41;4.38;;;1.40;;
8819;SDS011;4446;50.876;4.736;2023-05-06T12:34:12;4.18;;;1.70;;
8819;SDS011;4446;50.876;4.736;2023-05-06T12:36:44;2.70;;;1.20;;
8819;SDS011;4446;50.876;4.736;2023-05-06T12:39:12;4.03;;;1.60;;
8819;SDS011;4446;50.876;4.736;2023-05-06T12:41:40;3.08;;;1.75;;
8819;SDS011;4446;50.876;4.736;2023-05-06T12:44:28;2.40;;;1.50;;
8819;SDS011;4446;50.876;4.736;2023-05-06T12:46:57;1.75;;;1.20;;
8819;SDS011;4446;50.876;4.736;2023-05-06T12:49:26;1.75;;;1.40;;
8819;SDS011;4446;50.876;4.736;2023-05-06T12:52:06;4.28;;;1.83;;
8819;SDS011;4446;50.876;4.736;2023-05-06T12:54:35;2.22;;;1.50;;
8819;SDS011;4446;50.876;4.736;2023-05-06T12:57:05;1.95;;;1.35;;
8819;SDS011;4446;50.876;4.736;2023-05-06T12:59:33;3.00;;;1.40;;
8819;SDS011;4446;50.876;4.736;2023-05-06T13:02:01;2.33;;;1.38;;
8819;SDS011;4446;50.876;4.736;2023-05-06T13:04:30;1.77;;;1.60;;
8819;SDS011;4446;50.876;4.736;2023-05-06T13:06:58;2.42;;;1.30;;
8819;SDS011;4446;50.876;4.736;2023-05-06T13:09:25;1.73;;;1.40;;
8819;SDS011;4446;50.876;4.736;2023-05-06T13:11:52;3.28;;;1.50;;
8819;SDS011;4446;50.876;4.736;2023-05-06T13:14:20;4.25;;;1.60;;
8819;SDS011;4446;50.876;4.736;2023-05-06T13:16:47;2.80;;;1.50;;
8819;SDS011;4446;50.876;4.736;2023-05-06T13:19:14;2.40;;;1.60;;
8819;SDS011;4446;50.876;4.736;2023-05-06T13:21:43;6.65;;;2.00;;
8819;SDS011;4446;50.876;4.736;2023-05-06T13:24:10;2.42;;;1.40;;
8819;SDS011;4446;50.876;4.736;2023-05-06T13:26:37;5.85;;;1.90;;
8819;SDS011;4446;50.876;4.736;2023-05-06T13:29:04;7.22;;;1.90;;
8819;SDS011;4446;50.876;4.736;2023-05-06T13:31:31;7.22;;;2.17;;
8819;SDS011;4446;50.876;4.736;2023-05-06T13:33:58;2.10;;;1.40;;
8819;SDS011;4446;50.876;4.736;2023-05-06T13:36:26;2.75;;;1.60;;
8819;SDS011;4446;50.876;4.736;2023-05-06T13:38:54;1.70;;;1.38;;
8819;SDS011;4446;50.876;4.736;2023-05-06T13:41:21;2.38;;;1.55;;
8819;SDS011;4446;50.876;4.736;2023-05-06T13:43:49;3.35;;;1.70;;
8819;SDS011;4446;50.876;4.736;2023-05-06T13:46:16;2.20;;;1.50;;
8819;SDS011;4446;50.876;4.736;2023-05-06T13:48:44;2.65;;;1.42;;
8819;SDS011;4446;50.876;4.736;2023-05-06T13:51:11;2.30;;;1.45;;
8819;SDS011;4446;50.876;4.736;2023-05-06T13:53:38;2.65;;;1.90;;
8819;SDS011;4446;50.876;4.736;2023-05-06T13:56:06;3.60;;;1.60;;
8819;SDS011;4446;50.876;4.736;2023-05-06T13:58:33;2.17;;;1.40;;
8819;SDS011;4446;50.876;4.736;2023-05-06T14:01:01;2.42;;;1.20;;
8819;SDS011;4446;50.876;4.736;2023-05-06T14:03:28;4.00;;;1.30;;
8819;SDS011;4446;50.876;4.736;2023-05-06T14:05:55;1.90;;;1.50;;
8819;SDS011;4446;50.876;4.736;2023-05-06T14:08:22;1.88;;;1.20;;
8819;SDS011;4446;50.876;4.736;2023-05-06T14:10:49;3.92;;;1.50;;
8819;SDS011;4446;50.876;4.736;2023-05-06T14:13:17;1.30;;;1.20;;
8819;SDS011;4446;50.876;4.736;2023-05-06T14:15:44;1.85;;;1.20;;
8819;SDS011;4446;50.876;4.736;2023-05-06T14:18:11;3.75;;;1.58;;
8819;SDS011;4446;50.876;4.736;2023-05-06T14:20:38;2.58;;;1.20;;
8819;SDS011;4446;50.876;4.736;2023-05-06T14:23:05;3.47;;;1.60;;
8819;SDS011;4446;50.876;4.736;2023-05-06T14:25:32;2.05;;;1.38;;
8819;SDS011;4446;50.876;4.736;2023-05-06T14:27:59;1.85;;;1.15;;
8819;SDS011;4446;50.876;4.736;2023-05-06T14:30:28;1.80;;;1.42;;
8819;SDS011;4446;50.876;4.736;2023-05-06T14:32:55;2.42;;;1.20;;
8819;SDS011;4446;50.876;4.736;2023-05-06T14:35:22;3.17;;;1.30;;
8819;SDS011;4446;50.876;4.736;2023-05-06T14:37:49;2.35;;;1.42;;
8819;SDS011;4446;50.876;4.736;2023-05-06T14:40:16;2.55;;;1.38;;
8819;SDS011;4446;50.876;4.736;2023-05-06T14:42:44;1.73;;;1.17;;
8819;SDS011;4446;50.876;4.736;2023-05-06T14:45:11;2.35;;;1.30;;
8819;SDS011;4446;50.876;4.736;2023-05-06T14:47:41;1.98;;;1.40;;
8819;SDS011;4446;50.876;4.736;2023-05-06T14:50:08;5.20;;;1.67;;
8819;SDS011;4446;50.876;4.736;2023-05-06T14:52:36;2.83;;;1.48;;
8819;SDS011;4446;50.876;4.736;2023-05-06T14:55:06;3.13;;;1.38;;
8819;SDS011;4446;50.876;4.736;2023-05-06T14:57:34;2.03;;;1.23;;
8819;SDS011;4446;50.876;4.736;2023-05-06T15:00:02;3.00;;;1.40;;
8819;SDS011;4446;50.876;4.736;2023-05-06T15:02:32;2.22;;;1.50;;
8819;SDS011;4446;50.876;4.736;2023-05-06T15:05:01;2.30;;;1.63;;
8819;SDS011;4446;50.876;4.736;2023-05-06T15:07:28;6.13;;;1.45;;
8819;SDS011;4446;50.876;4.736;2023-05-06T15:09:55;4.32;;;1.92;;
8819;SDS011;4446;50.876;4.736;2023-05-06T15:12:22;2.33;;;1.25;;
8819;SDS011;4446;50.876;4.736;2023-05-06T15:14:49;5.15;;;1.55;;
8819;SDS011;4446;50.876;4.736;2023-05-06T15:17:16;3.38;;;1.50;;
8819;SDS011;4446;50.876;4.736;2023-05-06T15:19:43;1.70;;;1.27;;
8819;SDS011;4446;50.876;4.736;2023-05-06T15:22:11;2.03;;;1.40;;